createdAt,value
2023-04-30T00:01:32.083Z,82.82
2023-04-30T00:03:58.736Z,83.13
2023-04-30T00:06:28.071Z,82.70
2023-04-30T00:08:54.900Z,82.91
2023-04-30T00:11:21.463Z,82.74
2023-04-30T00:13:48.102Z,82.03
2023-04-30T00:16:14.637Z,82.40
2023-04-30T00:18:41.171Z,82.10
2023-04-30T00:21:07.767Z,82.69
2023-04-30T00:23:34.249Z,80.46
2023-04-30T00:26:00.933Z,80.68
2023-04-30T00:28:27.618Z,79.15
2023-04-30T00:30:54.213Z,78.71
2023-04-30T00:33:21.029Z,78.49
2023-04-30T00:35:47.676Z,77.93
2023-04-30T00:38:14.301Z,77.99
2023-04-30T00:40:42.177Z,78.01
2023-04-30T00:43:08.829Z,77.96
2023-04-30T00:45:35.479Z,79.01
2023-04-30T00:48:02.340Z,79.35
2023-04-30T00:50:29.463Z,79.51
2023-04-30T00:52:56.106Z,80.23
2023-04-30T00:55:22.743Z,80.90
2023-04-30T00:57:49.228Z,80.75
2023-04-30T01:00:15.963Z,81.40
2023-04-30T01:02:43.957Z,82.45
2023-04-30T01:05:10.650Z,82.22
2023-04-30T01:07:45.100Z,82.66
2023-04-30T01:10:15.812Z,82.76
2023-04-30T01:13:06.987Z,83.46
2023-04-30T01:15:51.669Z,83.77
2023-04-30T01:18:35.536Z,84.58
2023-04-30T01:21:04.996Z,84.76
2023-04-30T01:24:09.757Z,84.98
2023-04-30T01:26:57.854Z,85.09
2023-04-30T01:29:25.058Z,85.72
2023-04-30T01:31:51.786Z,86.35
2023-04-30T01:34:18.590Z,86.88
2023-04-30T01:37:22.133Z,86.66
2023-04-30T01:40:19.001Z,86.87
2023-04-30T01:42:57.113Z,88.46
2023-04-30T01:46:02.889Z,88.00
2023-04-30T01:48:41.597Z,88.70
2023-04-30T01:51:11.221Z,89.43
2023-04-30T01:53:42.759Z,88.94
2023-04-30T01:56:18.855Z,90.32
2023-04-30T01:58:46.651Z,89.78
2023-04-30T02:01:29.745Z,89.99
2023-04-30T02:03:56.814Z,89.67
2023-04-30T02:06:28.610Z,91.09
2023-04-30T02:09:03.271Z,90.27
2023-04-30T02:11:30.187Z,91.16
2023-04-30T02:13:56.752Z,90.63
2023-04-30T02:16:24.286Z,91.37
2023-04-30T02:18:51.314Z,91.26
2023-04-30T02:21:18.365Z,91.39
2023-04-30T02:23:45.942Z,91.98
2023-04-30T02:26:12.413Z,92.59
2023-04-30T02:28:39.054Z,92.82
2023-04-30T02:31:06.014Z,92.88
2023-04-30T02:33:32.988Z,92.42
2023-04-30T02:36:00.385Z,91.65
2023-04-30T02:38:26.976Z,92.23
2023-04-30T02:40:53.491Z,92.20
2023-04-30T02:43:20.432Z,91.99
2023-04-30T02:45:47.189Z,91.32
2023-04-30T02:48:13.867Z,91.97
2023-04-30T02:50:40.476Z,91.97
2023-04-30T02:53:06.975Z,92.37
2023-04-30T02:55:33.548Z,92.48
2023-04-30T02:58:00.268Z,92.43
2023-04-30T03:00:27.125Z,92.83
2023-04-30T03:02:54.703Z,93.28
2023-04-30T03:05:21.509Z,93.57
2023-04-30T03:07:48.012Z,94.05
2023-04-30T03:10:14.640Z,93.35
2023-04-30T03:12:41.221Z,94.44
2023-04-30T03:15:08.438Z,94.97
2023-04-30T03:17:34.954Z,95.34
2023-04-30T03:20:01.481Z,95.44
2023-04-30T03:22:28.034Z,94.78
2023-04-30T03:24:54.657Z,95.65
2023-04-30T03:27:21.237Z,95.06
2023-04-30T03:29:48.814Z,95.26
2023-04-30T03:32:15.558Z,95.90
2023-04-30T03:34:42.551Z,95.62
2023-04-30T03:37:09.086Z,95.30
2023-04-30T03:39:35.897Z,96.12
2023-04-30T03:42:03.759Z,95.96
2023-04-30T03:44:32.614Z,96.54
2023-04-30T03:46:59.155Z,97.19
2023-04-30T03:49:25.779Z,96.81
2023-04-30T03:51:52.286Z,96.13
2023-04-30T03:54:18.769Z,95.64
2023-04-30T03:56:45.211Z,94.85
2023-04-30T03:59:11.701Z,95.28
2023-04-30T04:01:38.423Z,94.77
2023-04-30T04:04:05.138Z,94.19
2023-04-30T04:06:32.260Z,93.99
2023-04-30T04:08:58.933Z,93.25
2023-04-30T04:11:26.691Z,93.71
2023-04-30T04:13:53.371Z,93.53
2023-04-30T04:16:19.980Z,92.02
2023-04-30T04:18:46.717Z,92.73
2023-04-30T04:21:13.244Z,91.44
2023-04-30T04:23:39.771Z,91.85
2023-04-30T04:26:06.246Z,92.20
2023-04-30T04:28:32.805Z,91.69
2023-04-30T04:30:59.656Z,92.07
2023-04-30T04:33:26.235Z,91.39
2023-04-30T04:35:52.755Z,91.73
2023-04-30T04:38:19.500Z,92.07
2023-04-30T04:40:55.769Z,91.90
2023-04-30T04:43:22.375Z,91.29
2023-04-30T04:45:48.946Z,91.17
2023-04-30T04:48:15.626Z,90.46
2023-04-30T04:50:42.475Z,89.53
2023-04-30T04:53:09.084Z,89.79
2023-04-30T04:55:36.174Z,88.95
2023-04-30T04:58:03.379Z,87.86
2023-04-30T05:00:29.960Z,87.63
2023-04-30T05:02:56.848Z,85.84
2023-04-30T05:05:24.190Z,86.30
2023-04-30T05:07:52.461Z,84.91
2023-04-30T05:10:18.975Z,85.19
2023-04-30T05:12:45.565Z,84.70
2023-04-30T05:15:12.591Z,83.19
2023-04-30T05:17:39.117Z,82.05
2023-04-30T05:20:07.304Z,78.35
2023-04-30T05:22:34.038Z,76.24
2023-04-30T05:25:00.554Z,74.10
2023-04-30T05:27:27.656Z,71.65
2023-04-30T05:29:54.365Z,70.79
2023-04-30T05:32:22.923Z,68.15
2023-04-30T05:34:49.949Z,62.91
2023-04-30T05:37:17.766Z,62.35
2023-04-30T05:39:44.323Z,62.60
2023-04-30T05:42:10.869Z,60.49
2023-04-30T05:44:37.486Z,58.88
2023-04-30T05:47:04.127Z,58.36
2023-04-30T05:49:30.553Z,56.91
2023-04-30T05:51:57.450Z,55.95
2023-04-30T05:54:24.202Z,56.46
2023-04-30T05:56:50.960Z,58.08
2023-04-30T05:59:17.540Z,58.84
2023-04-30T06:01:44.194Z,58.91
2023-04-30T06:04:11.679Z,59.28
2023-04-30T06:06:38.687Z,57.44
2023-04-30T06:09:05.234Z,57.46
2023-04-30T06:11:31.910Z,55.39
2023-04-30T06:13:58.585Z,55.91
2023-04-30T06:16:25.273Z,53.45
2023-04-30T06:18:53.569Z,51.68
2023-04-30T06:21:20.954Z,51.21
2023-04-30T06:23:47.480Z,48.16
2023-04-30T06:26:15.286Z,46.14
2023-04-30T06:28:41.812Z,43.76
2023-04-30T06:31:08.419Z,44.59
2023-04-30T06:33:34.970Z,41.64
2023-04-30T06:36:01.575Z,40.23
2023-04-30T06:38:28.866Z,37.52
2023-04-30T06:40:55.493Z,35.76
2023-04-30T06:43:21.889Z,36.68
2023-04-30T06:45:48.323Z,36.58
2023-04-30T06:48:14.876Z,36.02
2023-04-30T06:50:45.032Z,34.96
2023-04-30T06:53:12.496Z,35.07
2023-04-30T06:55:39.608Z,37.34
2023-04-30T06:58:06.230Z,41.97
2023-04-30T07:00:32.795Z,43.36
2023-04-30T07:03:02.681Z,44.51
2023-04-30T07:05:29.952Z,44.85
2023-04-30T07:07:57.405Z,43.17
2023-04-30T07:10:24.103Z,39.98
2023-04-30T07:12:50.803Z,38.01
2023-04-30T07:15:17.423Z,38.43
2023-04-30T07:17:44.471Z,40.51
2023-04-30T07:20:12.048Z,41.92
2023-04-30T07:22:38.579Z,43.95
2023-04-30T07:25:05.917Z,44.34
2023-04-30T07:27:32.714Z,44.31
2023-04-30T07:29:59.306Z,46.38
2023-04-30T07:32:27.362Z,48.52
2023-04-30T07:34:54.103Z,44.80
2023-04-30T07:37:22.778Z,44.61
2023-04-30T07:39:49.461Z,40.99
2023-04-30T07:42:16.065Z,42.38
2023-04-30T07:44:42.480Z,44.12
2023-04-30T07:47:09.957Z,46.89
2023-04-30T07:49:36.694Z,48.22
2023-04-30T07:52:03.594Z,48.08
2023-04-30T07:54:30.246Z,43.34
2023-04-30T07:56:56.759Z,44.27
2023-04-30T07:59:24.514Z,46.15
2023-04-30T08:01:51.781Z,47.84
2023-04-30T08:04:18.294Z,49.61
2023-04-30T08:06:44.914Z,49.33
2023-04-30T08:09:11.614Z,51.25
2023-04-30T08:11:38.075Z,50.86
2023-04-30T08:14:05.521Z,49.59
2023-04-30T08:16:32.013Z,46.80
2023-04-30T08:18:59.258Z,44.85
2023-04-30T08:21:28.044Z,44.90
2023-04-30T08:23:55.026Z,46.61
2023-04-30T08:26:21.968Z,47.85
2023-04-30T08:28:48.442Z,46.70
2023-04-30T08:31:15.233Z,44.21
2023-04-30T08:33:41.695Z,42.96
2023-04-30T08:36:08.280Z,46.63
2023-04-30T08:38:34.913Z,47.48
2023-04-30T08:41:11.456Z,47.93
2023-04-30T08:43:38.334Z,45.96
2023-04-30T08:46:05.640Z,44.88
2023-04-30T08:48:32.472Z,45.07
2023-04-30T08:51:03.612Z,46.63
2023-04-30T08:53:31.592Z,47.45
2023-04-30T08:55:58.396Z,48.28
2023-04-30T08:58:25.286Z,46.46
2023-04-30T09:00:51.756Z,42.74
2023-04-30T09:03:18.534Z,39.06
2023-04-30T09:05:46.251Z,38.50
2023-04-30T09:08:18.382Z,41.56
2023-04-30T09:10:44.921Z,44.42
2023-04-30T09:13:12.228Z,43.34
2023-04-30T09:15:41.636Z,38.62
2023-04-30T09:18:10.033Z,36.51
2023-04-30T09:20:37.004Z,33.73
2023-04-30T09:23:11.148Z,37.06
2023-04-30T09:25:42.248Z,38.56
2023-04-30T09:28:12.837Z,40.49
2023-04-30T09:30:42.345Z,43.79
2023-04-30T09:33:11.476Z,43.88
2023-04-30T09:35:42.614Z,39.26
2023-04-30T09:38:31.974Z,36.77
2023-04-30T09:41:01.788Z,37.71
2023-04-30T09:43:29.939Z,39.55
2023-04-30T09:45:59.263Z,37.30
2023-04-30T09:48:29.930Z,34.54
2023-04-30T09:50:56.834Z,32.10
2023-04-30T09:53:24.321Z,33.32
2023-04-30T09:55:51.541Z,32.44
2023-04-30T09:58:19.076Z,32.68
2023-04-30T10:00:46.839Z,35.95
2023-04-30T10:03:14.571Z,37.72
2023-04-30T10:05:47.554Z,36.77
2023-04-30T10:08:22.143Z,36.31
2023-04-30T10:10:52.561Z,31.40
2023-04-30T10:13:20.449Z,29.89
2023-04-30T10:15:50.442Z,28.54
2023-04-30T10:18:28.406Z,28.03
2023-04-30T10:20:55.272Z,28.13
2023-04-30T10:23:22.210Z,25.47
2023-04-30T10:25:49.341Z,26.80
2023-04-30T10:28:16.115Z,30.14
2023-04-30T10:30:45.774Z,34.04
2023-04-30T10:33:16.822Z,34.17
2023-04-30T10:35:50.979Z,33.54
2023-04-30T10:38:25.548Z,29.01
2023-04-30T10:40:57.304Z,28.24
2023-04-30T10:43:24.727Z,27.73
2023-04-30T10:45:51.462Z,30.39
2023-04-30T10:48:24.741Z,30.68
2023-04-30T10:50:52.728Z,34.36
2023-04-30T10:53:20.738Z,34.44
2023-04-30T10:55:58.626Z,35.70
2023-04-30T10:58:34.196Z,34.34
2023-04-30T11:01:12.838Z,35.16
2023-04-30T11:04:08.630Z,30.68
2023-04-30T11:06:55.660Z,30.99
2023-04-30T11:09:37.477Z,31.24
2023-04-30T11:12:05.254Z,31.52
2023-04-30T11:14:33.126Z,30.74
2023-04-30T11:17:04.441Z,30.87
2023-04-30T11:19:34.579Z,30.31
2023-04-30T11:22:04.139Z,31.73
2023-04-30T11:24:58.965Z,30.53
2023-04-30T11:27:27.062Z,29.67
2023-04-30T11:29:55.170Z,29.93
2023-04-30T11:32:23.390Z,33.28
2023-04-30T11:34:50.576Z,32.23
2023-04-30T11:37:23.457Z,32.48
2023-04-30T11:39:50.093Z,33.07
2023-04-30T11:42:18.807Z,32.38
2023-04-30T11:44:46.069Z,32.31
2023-04-30T11:47:15.978Z,30.59
2023-04-30T11:49:45.532Z,29.89
2023-04-30T11:52:15.148Z,31.38
2023-04-30T11:54:41.622Z,31.27
2023-04-30T11:57:08.169Z,31.44
2023-04-30T11:59:41.780Z,31.46
2023-04-30T12:02:08.383Z,32.36
2023-04-30T12:04:36.797Z,33.69
2023-04-30T12:07:04.274Z,38.25
2023-04-30T12:09:30.776Z,36.02
2023-04-30T12:11:58.304Z,35.57
2023-04-30T12:14:25.370Z,32.71
2023-04-30T12:16:52.894Z,31.04
2023-04-30T12:19:22.108Z,29.50
2023-04-30T12:21:49.300Z,32.55
2023-04-30T12:24:17.133Z,32.65
2023-04-30T12:26:45.341Z,31.68
2023-04-30T12:29:15.860Z,32.39
2023-04-30T12:31:43.168Z,31.68
2023-04-30T12:34:12.641Z,31.37
2023-04-30T12:36:42.597Z,32.22
2023-04-30T12:39:10.953Z,33.69
2023-04-30T12:41:47.501Z,34.89
2023-04-30T12:44:25.121Z,35.58
2023-04-30T12:46:56.184Z,33.58
2023-04-30T12:49:43.275Z,32.06
2023-04-30T12:52:12.444Z,33.96
2023-04-30T12:54:39.976Z,33.82
2023-04-30T12:57:11.996Z,33.15
2023-04-30T12:59:40.170Z,33.98
2023-04-30T13:02:08.348Z,34.38
2023-04-30T13:04:36.151Z,33.96
2023-04-30T13:07:03.587Z,33.47
2023-04-30T13:09:31.862Z,31.98
2023-04-30T13:11:58.318Z,33.66
2023-04-30T13:14:25.045Z,34.85
2023-04-30T13:16:51.586Z,31.47
2023-04-30T13:19:18.165Z,31.50
2023-04-30T13:21:44.776Z,32.98
2023-04-30T13:24:11.683Z,32.80
2023-04-30T13:26:39.233Z,31.60
2023-04-30T13:29:05.690Z,32.44
2023-04-30T13:31:32.222Z,32.34
2023-04-30T13:33:59.862Z,32.08
2023-04-30T13:36:27.110Z,30.31
2023-04-30T13:38:53.799Z,31.33
2023-04-30T13:41:22.038Z,30.77
2023-04-30T13:43:49.334Z,30.11
2023-04-30T13:46:16.643Z,29.67
2023-04-30T13:48:43.329Z,29.04
2023-04-30T13:51:09.822Z,30.82
2023-04-30T13:53:37.287Z,29.92
2023-04-30T13:56:04.082Z,30.53
2023-04-30T13:58:30.732Z,31.49
2023-04-30T14:00:57.327Z,30.21
2023-04-30T14:03:24.302Z,28.62
2023-04-30T14:05:51.165Z,29.17
2023-04-30T14:08:17.604Z,28.04
2023-04-30T14:10:44.218Z,29.28
2023-04-30T14:13:11.038Z,32.33
2023-04-30T14:15:38.641Z,31.71
2023-04-30T14:18:05.420Z,30.27
2023-04-30T14:20:35.650Z,28.04
2023-04-30T14:23:02.956Z,31.15
2023-04-30T14:25:29.510Z,33.78
2023-04-30T14:27:55.955Z,32.24
2023-04-30T14:30:22.571Z,29.90
2023-04-30T14:32:49.358Z,30.75
2023-04-30T14:35:15.980Z,29.72
2023-04-30T14:37:43.009Z,32.97
2023-04-30T14:40:10.130Z,28.98
2023-04-30T14:42:36.807Z,30.93
2023-04-30T14:45:03.979Z,32.33
2023-04-30T14:47:31.204Z,30.04
2023-04-30T14:49:59.022Z,30.72
2023-04-30T14:52:25.742Z,31.92
2023-04-30T14:54:52.564Z,30.63
2023-04-30T14:57:19.312Z,32.85
2023-04-30T14:59:45.720Z,32.86
2023-04-30T15:02:12.429Z,31.75
2023-04-30T15:04:39.089Z,32.95
2023-04-30T15:07:05.765Z,32.29
2023-04-30T15:09:32.312Z,33.56
2023-04-30T15:11:58.865Z,35.46
2023-04-30T15:14:25.485Z,35.50
2023-04-30T15:16:52.138Z,33.44
2023-04-30T15:19:18.722Z,33.82
2023-04-30T15:21:46.977Z,34.24
2023-04-30T15:24:16.119Z,34.81
2023-04-30T15:26:42.734Z,35.45
2023-04-30T15:29:10.537Z,34.92
2023-04-30T15:31:37.560Z,33.94
2023-04-30T15:34:05.456Z,34.91
2023-04-30T15:36:33.306Z,33.49
2023-04-30T15:38:59.894Z,32.45
2023-04-30T15:41:26.473Z,32.62
2023-04-30T15:43:53.071Z,34.51
2023-04-30T15:46:19.665Z,33.52
2023-04-30T15:48:46.265Z,33.77
2023-04-30T15:51:12.830Z,35.00
2023-04-30T15:53:39.567Z,34.93
2023-04-30T15:56:06.351Z,33.04
2023-04-30T15:58:32.924Z,33.87
2023-04-30T16:00:59.598Z,36.22
2023-04-30T16:03:26.317Z,35.63
2023-04-30T16:05:54.068Z,36.37
2023-04-30T16:08:20.863Z,36.28
2023-04-30T16:10:47.352Z,36.45
2023-04-30T16:13:13.868Z,35.26
2023-04-30T16:15:40.362Z,35.96
2023-04-30T16:18:07.801Z,34.87
2023-04-30T16:20:34.344Z,36.00
2023-04-30T16:23:00.900Z,35.52
2023-04-30T16:25:27.353Z,36.61
2023-04-30T16:27:54.116Z,36.27
2023-04-30T16:30:20.731Z,36.25
2023-04-30T16:32:47.749Z,36.51
2023-04-30T16:35:14.507Z,36.04
2023-04-30T16:37:41.099Z,35.41
2023-04-30T16:40:08.337Z,36.19
2023-04-30T16:42:34.998Z,37.74
2023-04-30T16:45:01.973Z,35.72
2023-04-30T16:47:28.834Z,35.66
2023-04-30T16:49:56.706Z,36.26
2023-04-30T16:52:23.793Z,37.43
2023-04-30T16:54:50.900Z,38.66
2023-04-30T16:57:17.429Z,38.07
2023-04-30T16:59:44.062Z,37.40
2023-04-30T17:02:10.664Z,38.11
2023-04-30T17:04:37.429Z,37.49
2023-04-30T17:07:04.093Z,38.26
2023-04-30T17:09:31.362Z,38.85
2023-04-30T17:11:58.100Z,38.19
2023-04-30T17:14:24.721Z,38.37
2023-04-30T17:16:51.275Z,38.11
2023-04-30T17:19:18.106Z,39.21
2023-04-30T17:21:44.696Z,39.53
2023-04-30T17:24:11.605Z,39.92
2023-04-30T17:26:38.453Z,40.09
2023-04-30T17:29:06.294Z,41.03
2023-04-30T17:31:33.312Z,41.25
2023-04-30T17:34:02.822Z,41.93
2023-04-30T17:36:30.357Z,40.55
2023-04-30T17:38:57.096Z,39.79
2023-04-30T17:41:24.079Z,40.55
2023-04-30T17:43:51.706Z,42.21
2023-04-30T17:46:18.466Z,42.08
2023-04-30T17:48:46.122Z,41.39
2023-04-30T17:51:12.655Z,42.04
2023-04-30T17:53:39.358Z,42.84
2023-04-30T17:56:06.309Z,43.81
2023-04-30T17:58:34.787Z,44.61
2023-04-30T18:01:03.400Z,45.58
2023-04-30T18:03:30.388Z,45.22
2023-04-30T18:05:57.093Z,46.54
2023-04-30T18:08:23.784Z,46.04
2023-04-30T18:10:50.381Z,46.63
2023-04-30T18:13:17.060Z,48.33
2023-04-30T18:15:43.661Z,48.76
2023-04-30T18:18:10.271Z,49.08
2023-04-30T18:20:37.054Z,49.96
2023-04-30T18:23:05.259Z,50.33
2023-04-30T18:25:34.330Z,51.33
2023-04-30T18:28:01.514Z,52.59
2023-04-30T18:30:28.199Z,53.16
2023-04-30T18:32:54.842Z,53.75
2023-04-30T18:35:22.206Z,54.52
2023-04-30T18:37:49.726Z,54.59
2023-04-30T18:40:16.609Z,54.82
2023-04-30T18:42:43.146Z,54.73
2023-04-30T18:45:11.437Z,55.18
2023-04-30T18:47:40.869Z,54.81
2023-04-30T18:50:15.445Z,54.92
2023-04-30T18:52:42.639Z,54.90
2023-04-30T18:55:11.683Z,55.56
2023-04-30T18:57:40.561Z,55.45
2023-04-30T19:00:09.872Z,56.14
2023-04-30T19:02:37.001Z,56.61
2023-04-30T19:05:03.939Z,57.46
2023-04-30T19:07:31.621Z,56.56
2023-04-30T19:09:58.680Z,56.72
2023-04-30T19:12:25.294Z,56.32
2023-04-30T19:14:52.040Z,56.15
2023-04-30T19:17:21.464Z,57.15
2023-04-30T19:19:50.253Z,57.45
2023-04-30T19:22:17.199Z,57.77
2023-04-30T19:24:43.905Z,57.70
2023-04-30T19:27:11.269Z,58.56
2023-04-30T19:29:39.567Z,60.09
2023-04-30T19:32:06.612Z,58.60
2023-04-30T19:34:33.521Z,59.77
2023-04-30T19:37:02.571Z,58.74
2023-04-30T19:39:36.076Z,59.50
2023-04-30T19:42:04.252Z,59.65
2023-04-30T19:44:30.925Z,60.14
2023-04-30T19:46:58.918Z,59.95
2023-04-30T19:49:26.615Z,60.51
2023-04-30T19:51:53.879Z,61.00
2023-04-30T19:54:21.391Z,61.80
2023-04-30T19:56:47.955Z,60.82
2023-04-30T19:59:15.526Z,62.29
2023-04-30T20:01:42.515Z,63.71
2023-04-30T20:04:09.897Z,63.44
2023-04-30T20:06:36.684Z,62.49
2023-04-30T20:09:04.818Z,62.68
2023-04-30T20:11:33.013Z,64.38
2023-04-30T20:13:59.532Z,61.72
2023-04-30T20:16:26.295Z,64.50
2023-04-30T20:18:52.763Z,63.78
2023-04-30T20:21:20.639Z,65.05
2023-04-30T20:23:47.291Z,64.36
2023-04-30T20:26:13.884Z,66.29
2023-04-30T20:28:40.595Z,65.58
2023-04-30T20:31:09.571Z,66.83
2023-04-30T20:33:36.271Z,67.03
2023-04-30T20:36:03.103Z,67.00
2023-04-30T20:38:30.929Z,67.64
2023-04-30T20:40:58.839Z,67.44
2023-04-30T20:43:25.303Z,68.66
2023-04-30T20:45:56.670Z,69.91
2023-04-30T20:48:25.972Z,68.99
2023-04-30T20:50:52.962Z,68.45
2023-04-30T20:53:21.110Z,69.22
2023-04-30T20:55:47.703Z,68.97
2023-04-30T20:58:14.441Z,69.48
2023-04-30T21:00:41.100Z,69.34
2023-04-30T21:03:08.432Z,69.51
2023-04-30T21:05:35.257Z,70.21
2023-04-30T21:08:02.031Z,70.68
2023-04-30T21:10:35.359Z,71.21
2023-04-30T21:13:06.375Z,71.82
2023-04-30T21:15:35.185Z,72.35
2023-04-30T21:18:02.002Z,71.81
2023-04-30T21:20:28.630Z,71.32
2023-04-30T21:22:56.489Z,71.15
2023-04-30T21:25:23.044Z,71.02
2023-04-30T21:27:49.962Z,71.32
2023-04-30T21:30:17.037Z,71.57
2023-04-30T21:32:46.981Z,71.71
2023-04-30T21:35:19.137Z,71.72
2023-04-30T21:37:45.588Z,73.57
2023-04-30T21:40:12.232Z,73.91
2023-04-30T21:42:39.975Z,73.67
2023-04-30T21:45:24.587Z,73.28
2023-04-30T21:47:51.149Z,72.98
2023-04-30T21:50:17.713Z,73.18
2023-04-30T21:52:44.372Z,71.45
2023-04-30T21:55:11.081Z,73.22
2023-04-30T21:57:37.610Z,72.35
2023-04-30T22:00:06.558Z,72.65
2023-04-30T22:02:33.800Z,73.28
2023-04-30T22:05:00.876Z,72.26
2023-04-30T22:07:30.041Z,72.52
2023-04-30T22:09:57.433Z,73.57
2023-04-30T22:12:25.224Z,74.02
2023-04-30T22:14:55.414Z,74.75
2023-04-30T22:17:22.691Z,73.67
2023-04-30T22:19:49.196Z,74.32
2023-04-30T22:22:16.013Z,74.88
2023-04-30T22:24:42.637Z,73.58
2023-04-30T22:27:09.054Z,74.05
2023-04-30T22:29:35.702Z,74.30
2023-04-30T22:32:02.493Z,74.83
2023-04-30T22:34:29.211Z,74.81
2023-04-30T22:36:56.553Z,75.99
2023-04-30T22:39:22.997Z,75.77
2023-04-30T22:41:50.856Z,75.68
2023-04-30T22:44:18.691Z,76.36
2023-04-30T22:46:46.035Z,76.04
2023-04-30T22:49:23.792Z,77.02
2023-04-30T22:51:57.495Z,77.28
2023-04-30T22:54:24.460Z,78.45
2023-04-30T22:56:50.873Z,78.38
2023-04-30T22:59:17.302Z,77.85
2023-04-30T23:01:43.789Z,78.20
2023-04-30T23:04:10.372Z,78.78
2023-04-30T23:06:36.851Z,78.55
2023-04-30T23:09:03.623Z,79.36
2023-04-30T23:11:29.980Z,79.70
2023-04-30T23:13:57.228Z,78.91
2023-04-30T23:16:24.980Z,80.88
2023-04-30T23:18:51.617Z,80.83
2023-04-30T23:21:18.165Z,79.93
2023-04-30T23:23:45.000Z,80.58
2023-04-30T23:26:11.559Z,80.78
2023-04-30T23:28:38.230Z,81.14
2023-04-30T23:31:04.792Z,81.55
2023-04-30T23:33:31.297Z,82.79
2023-04-30T23:35:57.921Z,81.83
2023-04-30T23:38:25.519Z,82.83
2023-04-30T23:40:52.225Z,82.06
2023-04-30T23:43:18.792Z,81.92
2023-04-30T23:45:45.455Z,82.06
2023-04-30T23:48:12.041Z,83.18
2023-04-30T23:50:38.570Z,83.34
2023-04-30T23:53:05.114Z,83.99
2023-04-30T23:55:31.869Z,83.50
2023-04-30T23:57:58.396Z,84.17
